Arcata Airport Arcata,Eureka US
ICAO: KACV
IATA: ACV
Category: Medium
Scheduled Services: Yes

Elevation: 221 ft
TransAlt. 18000 ft.

Airport Communications:
ASOS:118.525
SEATTLE CNTR:124.85
COAST GUARD AIR OPS:34.5
OAKLAND RDO:122.6
CTAF/UNICOM:123

KACV Zoom In..

Runways:

(A) RW 01 length 4501 ft width 150 ft
---- / hdg 13

(B) RW 14 length 6046 ft width 150 ft
---- / hdg 136

(C) RW 19 length 4501 ft width 150 ft
---- / hdg 193

(D) RW 32 length 6046 ft width 150 ft
ILS 109.50 / hdg 316

Location; KACV
Day. 22 / Time. 04.08 Zulu
* Altimeter: 30.17
* Temperature: 10° c. 50°f.
* Wind from: 310° Speed 04 kn.
Dewpoint: 08° c.
Visibility: 6 Statute Miles.
Clouds: Overcast 1400 ft.
Conditions: Light Rain.Conditions: Mist.

KACV 220408Z AUTO 31004KT 6SM -RA BR OVC014 10/08 A3017 RMK AO2 P0000 T01000078


Wind From 310°
Speed 04 kn.

jpsM music video
CHECK IT OUT

jpsM - It Moves..

 
jpsmedia.com for Web Design  worldairports.se 2018   terms of use